createdAt,value
2019-05-20T00:00:17.335Z,96.47
2019-05-20T00:01:17.344Z,96.73
2019-05-20T00:02:25.790Z,96.47
2019-05-20T00:03:18.300Z,96.47
2019-05-20T00:04:17.288Z,96.88
2019-05-20T00:05:17.301Z,96.47
2019-05-20T00:06:17.288Z,96.47
2019-05-20T00:07:17.253Z,96.78
2019-05-20T00:08:17.242Z,96.37
2019-05-20T00:09:17.257Z,96.37
2019-05-20T00:10:17.218Z,97.49
2019-05-20T00:11:17.226Z,97.29
2019-05-20T00:12:17.200Z,96.58
2019-05-20T00:13:17.189Z,97.08
2019-05-20T00:14:17.170Z,97.19
2019-05-20T00:15:17.161Z,97.39
2019-05-20T00:16:17.166Z,97.70
2019-05-20T00:17:17.137Z,97.29
2019-05-20T00:18:17.124Z,97.49
2019-05-20T00:19:17.109Z,96.88
2019-05-20T00:20:17.102Z,97.49
2019-05-20T00:21:17.111Z,96.98
2019-05-20T00:22:17.077Z,97.33
2019-05-20T00:23:17.063Z,96.88
2019-05-20T00:24:17.053Z,96.92
2019-05-20T00:25:17.040Z,97.54
2019-05-20T00:26:17.031Z,97.44
2019-05-20T00:27:17.036Z,97.03
2019-05-20T00:28:17.008Z,97.08
2019-05-20T00:29:16.996Z,97.33
2019-05-20T00:30:16.983Z,97.33
2019-05-20T00:31:16.992Z,97.33
2019-05-20T00:32:16.960Z,96.42
2019-05-20T00:33:16.947Z,96.62
2019-05-20T00:34:16.935Z,96.42
2019-05-20T00:35:16.923Z,96.77
2019-05-20T00:36:16.930Z,96.11
2019-05-20T00:37:16.901Z,96.36
2019-05-20T00:38:16.888Z,96.56
2019-05-20T00:39:16.878Z,96.77
2019-05-20T00:40:16.869Z,97.13
2019-05-20T00:41:16.870Z,96.87
2019-05-20T00:42:16.841Z,97.33
2019-05-20T00:43:16.842Z,96.67
2019-05-20T00:44:16.829Z,96.56
2019-05-20T00:45:16.813Z,96.15
2019-05-20T00:46:16.859Z,96.67
2019-05-20T00:47:16.783Z,96.05
2019-05-20T00:48:16.771Z,96.46
2019-05-20T00:49:16.765Z,96.87
2019-05-20T00:50:16.745Z,96.46
2019-05-20T00:51:16.753Z,96.46
2019-05-20T00:52:16.812Z,96.20
2019-05-20T00:53:16.709Z,96.71
2019-05-20T00:54:16.726Z,96.15
2019-05-20T00:55:16.706Z,96.30
2019-05-20T00:56:16.693Z,96.00
2019-05-20T00:57:16.666Z,96.41
2019-05-20T00:58:16.657Z,96.61
2019-05-20T00:59:16.641Z,96.71
2019-05-20T01:00:16.625Z,97.33
2019-05-20T01:01:16.635Z,97.53
2019-05-20T01:02:16.612Z,96.51
2019-05-20T01:03:16.591Z,96.51
2019-05-20T01:04:16.579Z,97.12
2019-05-20T01:05:16.569Z,97.33
2019-05-20T01:06:16.575Z,97.63
2019-05-20T01:07:16.546Z,97.42
2019-05-20T01:08:16.534Z,98.45
2019-05-20T01:09:16.524Z,98.35
2019-05-20T01:10:16.517Z,98.24
2019-05-20T01:11:16.517Z,98.55
2019-05-20T01:12:16.488Z,98.24
2019-05-20T01:13:16.477Z,98.35
2019-05-20T01:14:16.464Z,98.49
2019-05-20T01:15:16.450Z,98.55
2019-05-20T01:16:16.458Z,98.45
2019-05-20T01:17:16.428Z,98.14
2019-05-20T01:18:16.415Z,98.04
2019-05-20T01:19:16.402Z,98.14
2019-05-20T01:20:16.395Z,97.83
2019-05-20T01:21:31.573Z,97.42
2019-05-20T01:22:16.370Z,97.98
2019-05-20T01:23:16.377Z,98.65
2019-05-20T01:24:16.349Z,98.49
2019-05-20T01:25:16.335Z,98.45
2019-05-20T01:26:16.322Z,98.70
2019-05-20T01:27:16.372Z,98.04
2019-05-20T01:28:16.302Z,98.49
2019-05-20T01:29:16.288Z,98.39
2019-05-20T01:30:16.280Z,98.49
2019-05-20T01:31:16.274Z,97.98
2019-05-20T01:32:16.282Z,97.78
2019-05-20T01:33:16.243Z,97.78
2019-05-20T01:34:16.234Z,98.39
2019-05-20T01:35:16.266Z,98.60
2019-05-20T01:36:16.209Z,98.49
2019-05-20T01:37:16.198Z,98.60
2019-05-20T01:38:16.205Z,98.39
2019-05-20T01:39:16.191Z,98.39
2019-05-20T01:40:16.161Z,97.98
2019-05-20T01:41:16.149Z,97.98
2019-05-20T01:42:16.138Z,97.67
2019-05-20T01:43:16.152Z,98.08
2019-05-20T01:44:16.115Z,98.49
2019-05-20T01:45:16.104Z,98.49
2019-05-20T01:46:16.091Z,98.65
2019-05-20T01:47:16.080Z,98.49
2019-05-20T01:48:16.068Z,98.19
2019-05-20T01:49:16.079Z,98.49
2019-05-20T01:50:16.045Z,98.19
2019-05-20T01:51:16.033Z,98.60
2019-05-20T01:52:16.020Z,98.19
2019-05-20T01:53:16.008Z,98.44
2019-05-20T01:54:16.016Z,98.54
2019-05-20T01:55:15.986Z,98.49
2019-05-20T01:56:15.982Z,98.39
2019-05-20T01:57:15.962Z,98.08
2019-05-20T01:58:15.950Z,98.29
2019-05-20T01:59:15.959Z,98.54
2019-05-20T02:00:15.928Z,98.29
2019-05-20T02:01:15.916Z,98.54
2019-05-20T02:02:15.905Z,98.54
2019-05-20T02:03:30.272Z,98.03
2019-05-20T02:04:16.901Z,98.44
2019-05-20T02:05:15.869Z,98.65
2019-05-20T02:06:15.857Z,98.44
2019-05-20T02:07:15.854Z,98.54
2019-05-20T02:08:15.835Z,98.65
2019-05-20T02:09:15.844Z,98.03
2019-05-20T02:10:15.834Z,98.13
2019-05-20T02:11:15.800Z,97.62
2019-05-20T02:12:15.788Z,97.41
2019-05-20T02:13:15.782Z,97.82
2019-05-20T02:14:15.765Z,98.03
2019-05-20T02:15:15.768Z,98.54
2019-05-20T02:16:15.739Z,98.54
2019-05-20T02:17:15.729Z,98.65
2019-05-20T02:18:15.717Z,98.54
2019-05-20T02:19:15.706Z,98.29
2019-05-20T02:20:15.713Z,98.44
2019-05-20T02:21:15.680Z,98.24
2019-05-20T02:22:15.669Z,98.33
2019-05-20T02:23:15.657Z,98.54
2019-05-20T02:24:15.648Z,98.80
2019-05-20T02:25:15.655Z,99.15
2019-05-20T02:26:15.620Z,98.80
2019-05-20T02:27:15.608Z,99.31
2019-05-20T02:28:15.595Z,99.11
2019-05-20T02:29:15.590Z,99.56
2019-05-20T02:30:15.575Z,98.80
2019-05-20T02:31:15.582Z,98.95
2019-05-20T02:32:15.549Z,99.05
2019-05-20T02:33:15.546Z,98.70
2019-05-20T02:34:15.529Z,99.05
2019-05-20T02:35:15.519Z,98.85
2019-05-20T02:36:15.522Z,99.36
2019-05-20T02:37:15.490Z,98.90
2019-05-20T02:38:15.482Z,99.01
2019-05-20T02:39:15.468Z,99.11
2019-05-20T02:40:15.456Z,99.41
2019-05-20T02:41:15.485Z,99.62
2019-05-20T02:42:15.436Z,99.01
2019-05-20T02:43:15.428Z,99.01
2019-05-20T02:44:15.412Z,99.11
2019-05-20T02:45:15.467Z,98.90
2019-05-20T02:46:15.413Z,98.95
2019-05-20T02:47:15.400Z,99.11
2019-05-20T02:48:15.366Z,99.46
2019-05-20T02:49:15.356Z,99.56
2019-05-20T02:50:15.346Z,99.72
2019-05-20T02:51:15.331Z,99.31
2019-05-20T02:52:15.343Z,99.41
2019-05-20T02:53:15.308Z,99.93
2019-05-20T02:54:15.299Z,99.93
2019-05-20T02:55:15.289Z,99.99
2019-05-20T02:56:15.275Z,99.99
2019-05-20T02:57:15.288Z,99.93
2019-05-20T02:58:15.252Z,99.99
2019-05-20T02:59:15.242Z,99.99
2019-05-20T03:00:15.231Z,99.98
2019-05-20T03:01:15.228Z,99.99
2019-05-20T03:02:15.230Z,99.99
2019-05-20T03:03:15.198Z,99.99
2019-05-20T03:04:15.217Z,99.99
2019-05-20T03:05:15.175Z,99.99
2019-05-20T03:06:15.162Z,99.99
2019-05-20T03:07:15.171Z,99.99
2019-05-20T03:08:15.138Z,99.99
2019-05-20T03:09:15.127Z,99.99
2019-05-20T03:10:15.114Z,99.99
2019-05-20T03:11:15.102Z,99.99
2019-05-20T03:12:15.114Z,99.99
2019-05-20T03:13:15.082Z,99.99
2019-05-20T03:14:15.071Z,99.99
2019-05-20T03:15:15.062Z,99.99
2019-05-20T03:16:15.810Z,99.99
2019-05-20T03:17:15.053Z,99.99
2019-05-20T03:18:15.027Z,99.99
2019-05-20T03:19:15.012Z,99.99
2019-05-20T03:20:14.998Z,99.99
2019-05-20T03:21:14.989Z,99.99
2019-05-20T03:22:15.000Z,99.99
2019-05-20T03:23:14.964Z,99.99
2019-05-20T03:24:14.952Z,99.99
2019-05-20T03:25:14.942Z,99.99
2019-05-20T03:26:14.926Z,99.99
2019-05-20T03:27:14.914Z,99.99
2019-05-20T03:28:14.921Z,99.99
2019-05-20T03:29:14.891Z,99.99
2019-05-20T03:30:14.882Z,99.99
2019-05-20T03:31:14.871Z,99.99
2019-05-20T03:32:14.862Z,99.99
2019-05-20T03:33:14.868Z,99.99
2019-05-20T03:34:42.414Z,99.99
2019-05-20T03:35:15.817Z,99.90
2019-05-20T03:36:14.807Z,99.99
2019-05-20T03:37:14.802Z,99.99
2019-05-20T03:38:14.784Z,99.99
2019-05-20T03:39:14.791Z,99.79
2019-05-20T03:40:14.761Z,99.99
2019-05-20T03:41:14.770Z,99.90
2019-05-20T03:42:14.736Z,99.99
2019-05-20T03:43:14.724Z,99.90
2019-05-20T03:44:14.736Z,99.99
2019-05-20T03:45:14.701Z,99.99
2019-05-20T03:46:14.691Z,99.75
2019-05-20T03:47:14.676Z,99.95
2019-05-20T03:48:14.667Z,99.99
2019-05-20T03:49:14.677Z,99.95
2019-05-20T03:50:14.642Z,99.85
2019-05-20T03:51:14.629Z,99.85
2019-05-20T03:52:14.618Z,99.75
2019-05-20T03:53:14.608Z,99.54
2019-05-20T03:54:14.615Z,99.99
2019-05-20T03:55:14.584Z,99.95
2019-05-20T03:56:14.573Z,99.75
2019-05-20T03:57:14.564Z,99.65
2019-05-20T03:58:14.548Z,99.65
2019-05-20T03:59:14.554Z,99.99
2019-05-20T04:00:14.527Z,99.60
2019-05-20T04:01:14.513Z,99.75
2019-05-20T04:02:14.499Z,99.60
2019-05-20T04:03:14.495Z,99.65
2019-05-20T04:04:14.500Z,99.70
2019-05-20T04:05:14.464Z,99.65
2019-05-20T04:06:14.452Z,99.60
2019-05-20T04:07:14.438Z,99.80
2019-05-20T04:08:14.428Z,99.70
2019-05-20T04:09:14.415Z,99.80
2019-05-20T04:10:14.424Z,99.85
2019-05-20T04:11:14.389Z,99.95
2019-05-20T04:12:14.378Z,99.99
2019-05-20T04:13:14.374Z,99.80
2019-05-20T04:14:14.359Z,99.70
2019-05-20T04:15:14.363Z,99.80
2019-05-20T04:16:14.350Z,99.91
2019-05-20T04:17:14.321Z,99.91
2019-05-20T04:18:14.309Z,99.99
2019-05-20T04:19:14.296Z,99.99
2019-05-20T04:20:14.285Z,99.99
2019-05-20T04:21:14.290Z,99.99
2019-05-20T04:22:14.262Z,99.99
2019-05-20T04:23:14.247Z,99.99
2019-05-20T04:24:14.242Z,99.99
2019-05-20T04:25:14.224Z,99.99
2019-05-20T04:26:14.230Z,99.99
2019-05-20T04:27:14.199Z,99.99
2019-05-20T04:28:14.188Z,99.99
2019-05-20T04:29:14.179Z,99.99
2019-05-20T04:30:18.432Z,99.99
2019-05-20T04:31:14.170Z,99.99
2019-05-20T04:32:14.146Z,99.99
2019-05-20T04:33:14.127Z,99.76
2019-05-20T04:34:14.141Z,99.99
2019-05-20T04:35:21.886Z,99.99
2019-05-20T04:36:15.111Z,99.99
2019-05-20T04:37:14.081Z,99.99
2019-05-20T04:38:14.071Z,99.99
2019-05-20T04:39:14.055Z,99.99
2019-05-20T04:40:14.047Z,99.86
2019-05-20T04:41:14.071Z,99.99
2019-05-20T04:42:14.023Z,99.61
2019-05-20T04:43:14.099Z,99.99
2019-05-20T04:44:14.078Z,99.81
2019-05-20T04:45:14.006Z,99.71
2019-05-20T04:46:13.973Z,99.71
2019-05-20T04:47:13.965Z,99.61
2019-05-20T04:48:14.302Z,99.61
2019-05-20T04:49:13.942Z,99.71
2019-05-20T04:50:13.949Z,99.71
2019-05-20T04:51:13.929Z,99.71
2019-05-20T04:52:13.904Z,99.99
2019-05-20T04:53:13.893Z,99.71
2019-05-20T04:54:13.885Z,99.71
2019-05-20T04:55:13.905Z,99.81
2019-05-20T04:56:13.861Z,99.99
2019-05-20T04:57:13.852Z,99.66
2019-05-20T04:58:13.834Z,99.99
2019-05-20T04:59:13.822Z,99.71
2019-05-20T05:00:13.810Z,99.99
2019-05-20T05:01:13.869Z,99.99
2019-05-20T05:02:13.787Z,99.97
2019-05-20T05:03:13.775Z,99.97
2019-05-20T05:04:13.763Z,99.56
2019-05-20T05:05:13.751Z,99.46
2019-05-20T05:06:13.775Z,99.66
2019-05-20T05:07:13.727Z,99.56
2019-05-20T05:08:13.714Z,99.56
2019-05-20T05:09:15.704Z,99.66
2019-05-20T05:10:13.703Z,99.87
2019-05-20T05:11:13.677Z,99.56
2019-05-20T05:12:13.700Z,99.56
2019-05-20T05:13:13.663Z,99.77
2019-05-20T05:14:13.644Z,99.87
2019-05-20T05:15:13.633Z,99.62
2019-05-20T05:16:13.619Z,99.72
2019-05-20T05:17:13.626Z,99.62
2019-05-20T05:18:13.596Z,99.41
2019-05-20T05:19:13.585Z,99.72
2019-05-20T05:20:17.899Z,99.82
2019-05-20T05:21:14.563Z,99.21
2019-05-20T05:22:13.567Z,99.41
2019-05-20T05:23:13.537Z,99.11
2019-05-20T05:24:13.526Z,99.31
2019-05-20T05:25:13.516Z,99.01
2019-05-20T05:26:13.501Z,99.11
2019-05-20T05:27:13.510Z,99.41
2019-05-20T05:28:13.479Z,99.62
2019-05-20T05:29:13.471Z,99.92
2019-05-20T05:30:13.481Z,99.72
2019-05-20T05:31:13.445Z,99.52
2019-05-20T05:32:13.505Z,99.31
2019-05-20T05:33:13.423Z,99.31
2019-05-20T05:34:13.441Z,98.91
2019-05-20T05:35:13.401Z,99.11
2019-05-20T05:36:13.386Z,99.52
2019-05-20T05:37:13.417Z,99.21
2019-05-20T05:38:13.393Z,99.62
2019-05-20T05:39:13.353Z,99.62
2019-05-20T05:40:13.341Z,99.37
2019-05-20T05:41:13.330Z,99.52
2019-05-20T05:42:13.319Z,99.37
2019-05-20T05:43:13.327Z,99.27
2019-05-20T05:44:13.294Z,98.96
2019-05-20T05:45:13.295Z,99.01
2019-05-20T05:46:13.272Z,98.45
2019-05-20T05:47:13.280Z,98.55
2019-05-20T05:48:13.249Z,99.06
2019-05-20T05:49:13.238Z,98.55
2019-05-20T05:50:13.225Z,98.86
2019-05-20T05:51:13.215Z,98.35
2019-05-20T05:52:13.226Z,98.45
2019-05-20T05:53:13.194Z,98.45
2019-05-20T05:54:13.180Z,98.66
2019-05-20T05:55:13.188Z,98.66
2019-05-20T05:56:13.158Z,98.61
2019-05-20T05:57:13.165Z,98.81
2019-05-20T05:58:13.135Z,98.96
2019-05-20T05:59:13.128Z,98.55
2019-05-20T06:00:13.110Z,98.50
2019-05-20T06:01:13.098Z,98.81
2019-05-20T06:02:13.108Z,98.41
2019-05-20T06:03:13.136Z,98.71
2019-05-20T06:04:13.066Z,98.91
2019-05-20T06:05:13.055Z,98.81
2019-05-20T06:06:13.608Z,98.91
2019-05-20T06:07:13.050Z,98.20
2019-05-20T06:08:13.050Z,98.20
2019-05-20T06:09:13.011Z,98.30
2019-05-20T06:10:12.996Z,98.00
2019-05-20T06:11:12.989Z,98.41
2019-05-20T06:12:12.994Z,98.26
2019-05-20T06:13:12.967Z,97.85
2019-05-20T06:14:12.952Z,98.26
2019-05-20T06:15:12.940Z,98.26
2019-05-20T06:16:12.928Z,97.85
2019-05-20T06:17:12.935Z,97.34
2019-05-20T06:18:12.905Z,97.44
2019-05-20T06:19:12.897Z,97.04
2019-05-20T06:20:12.881Z,96.28
2019-05-20T06:21:12.873Z,97.04
2019-05-20T06:22:14.579Z,96.48
2019-05-20T06:23:12.846Z,96.59
2019-05-20T06:24:12.840Z,96.69
2019-05-20T06:25:12.825Z,96.48
2019-05-20T06:26:12.846Z,96.69
2019-05-20T06:27:12.821Z,96.34
2019-05-20T06:28:12.791Z,96.69
2019-05-20T06:29:12.780Z,96.54
2019-05-20T06:30:12.773Z,96.44
2019-05-20T06:31:12.757Z,96.59
2019-05-20T06:32:12.767Z,96.64
2019-05-20T06:33:12.735Z,95.83
2019-05-20T06:34:12.722Z,95.73
2019-05-20T06:35:12.718Z,96.14
2019-05-20T06:36:25.921Z,96.23
2019-05-20T06:37:13.712Z,95.63
2019-05-20T06:38:12.729Z,96.23
2019-05-20T06:39:12.665Z,95.73
2019-05-20T06:40:12.654Z,95.53
2019-05-20T06:41:12.643Z,95.73
2019-05-20T06:42:12.632Z,96.23
2019-05-20T06:43:12.641Z,95.94
2019-05-20T06:44:12.610Z,96.14
2019-05-20T06:45:12.598Z,95.83
2019-05-20T06:46:12.585Z,96.14
2019-05-20T06:47:12.573Z,95.12
2019-05-20T06:48:12.585Z,95.58
2019-05-20T06:49:12.556Z,95.58
2019-05-20T06:50:12.539Z,95.22
2019-05-20T06:51:12.527Z,95.02
2019-05-20T06:52:12.549Z,94.87
2019-05-20T06:53:12.503Z,95.07
2019-05-20T06:54:12.496Z,94.37
2019-05-20T06:55:12.491Z,94.17
2019-05-20T06:56:12.472Z,94.37
2019-05-20T06:57:12.836Z,94.06
2019-05-20T06:58:12.487Z,94.17
2019-05-20T06:59:12.446Z,93.96
2019-05-20T07:00:12.429Z,94.37
2019-05-20T07:01:12.416Z,94.37
2019-05-20T07:02:12.404Z,94.26
2019-05-20T07:03:12.397Z,94.17
2019-05-20T07:04:12.396Z,94.06
2019-05-20T07:05:12.374Z,93.71
2019-05-20T07:06:12.357Z,93.41
2019-05-20T07:07:20.416Z,93.15
2019-05-20T07:08:13.331Z,93.51
2019-05-20T07:09:12.344Z,93.21
2019-05-20T07:10:12.317Z,93.46
2019-05-20T07:11:12.299Z,92.65
2019-05-20T07:12:12.285Z,92.55
2019-05-20T07:13:12.275Z,92.45
2019-05-20T07:14:12.283Z,92.31
2019-05-20T07:15:12.251Z,92.21
2019-05-20T07:16:12.539Z,92.65
2019-05-20T07:17:12.231Z,92.71
2019-05-20T07:18:12.236Z,91.74
2019-05-20T07:19:12.209Z,90.99
2019-05-20T07:20:12.214Z,91.39
2019-05-20T07:21:12.181Z,90.54
2019-05-20T07:22:12.175Z,90.48
2019-05-20T07:23:12.160Z,91.39
2019-05-20T07:24:12.153Z,91.30
2019-05-20T07:25:12.158Z,90.89
2019-05-20T07:26:12.124Z,90.28
2019-05-20T07:27:12.111Z,90.38
2019-05-20T07:28:12.102Z,90.58
2019-05-20T07:29:12.093Z,90.89
2019-05-20T07:30:15.198Z,90.79
2019-05-20T07:31:12.067Z,90.48
2019-05-20T07:32:12.086Z,90.69
2019-05-20T07:33:12.042Z,90.18
2019-05-20T07:34:12.031Z,89.83
2019-05-20T07:35:28.239Z,88.72
2019-05-20T07:36:13.004Z,89.12
2019-05-20T07:37:11.997Z,88.92
2019-05-20T07:38:11.985Z,88.31
2019-05-20T07:39:12.020Z,88.57
2019-05-20T07:40:11.990Z,88.37
2019-05-20T07:41:11.948Z,87.87
2019-05-20T07:42:11.941Z,86.71
2019-05-20T07:43:11.926Z,86.00
2019-05-20T07:44:11.915Z,85.76
2019-05-20T07:45:11.903Z,85.50
2019-05-20T07:46:11.917Z,85.96
2019-05-20T07:47:11.885Z,86.07
2019-05-20T07:48:11.886Z,85.46
2019-05-20T07:49:12.181Z,85.36
2019-05-20T07:50:11.844Z,85.66
2019-05-20T07:51:11.853Z,85.36
2019-05-20T07:52:11.838Z,85.96
2019-05-20T07:53:11.812Z,85.30
2019-05-20T07:54:11.798Z,85.70
2019-05-20T07:55:11.785Z,85.36
2019-05-20T07:56:11.796Z,85.50
2019-05-20T07:57:11.765Z,85.96
2019-05-20T07:58:11.752Z,86.21
2019-05-20T07:59:11.746Z,85.90
2019-05-20T08:00:11.749Z,86.07
2019-05-20T08:01:11.747Z,85.90
2019-05-20T08:02:11.708Z,85.66
2019-05-20T08:03:11.697Z,86.16
2019-05-20T08:04:11.685Z,86.77
2019-05-20T08:05:11.676Z,85.96
2019-05-20T08:06:11.745Z,85.39
2019-05-20T08:07:26.535Z,86.82
2019-05-20T08:08:12.662Z,86.67
2019-05-20T08:09:11.631Z,86.00
2019-05-20T08:10:11.718Z,86.61
2019-05-20T08:11:11.604Z,86.51
2019-05-20T08:12:11.616Z,86.10
2019-05-20T08:13:11.582Z,86.00
2019-05-20T08:14:11.572Z,85.96
2019-05-20T08:15:11.557Z,85.90
2019-05-20T08:16:11.546Z,86.57
2019-05-20T08:17:11.557Z,85.56
2019-05-20T08:18:11.521Z,85.05
2019-05-20T08:19:11.518Z,85.36
2019-05-20T08:20:11.526Z,84.55
2019-05-20T08:21:11.491Z,84.25
2019-05-20T08:22:11.496Z,84.25
2019-05-20T08:23:11.477Z,84.14
2019-05-20T08:24:11.459Z,85.36
2019-05-20T08:25:11.444Z,84.48
2019-05-20T08:26:11.432Z,84.48
2019-05-20T08:27:11.438Z,85.50
2019-05-20T08:28:11.408Z,84.69
2019-05-20T08:29:11.410Z,85.39
2019-05-20T08:30:14.067Z,85.16
2019-05-20T08:31:11.377Z,84.99
2019-05-20T08:32:11.396Z,83.94
2019-05-20T08:33:11.351Z,84.34
2019-05-20T08:34:11.347Z,84.11
2019-05-20T08:35:11.331Z,83.29
2019-05-20T08:36:11.324Z,83.36
2019-05-20T08:37:11.311Z,82.91
2019-05-20T08:38:11.313Z,81.10
2019-05-20T08:39:11.287Z,80.19
2019-05-20T08:40:11.280Z,80.99
2019-05-20T08:41:11.264Z,81.10
2019-05-20T08:42:11.271Z,80.96
2019-05-20T08:43:11.240Z,80.85
2019-05-20T08:44:11.228Z,79.54
2019-05-20T08:45:11.217Z,80.35
2019-05-20T08:46:11.254Z,80.96
2019-05-20T08:47:11.212Z,80.96
2019-05-20T08:48:11.181Z,80.15
2019-05-20T08:49:11.734Z,80.65
2019-05-20T08:50:15.990Z,80.19
2019-05-20T08:51:12.145Z,80.83
2019-05-20T08:52:11.264Z,81.13
2019-05-20T08:53:11.124Z,82.35
2019-05-20T08:54:11.117Z,81.84
2019-05-20T08:55:11.101Z,81.74
2019-05-20T08:56:11.101Z,80.73
2019-05-20T08:57:11.079Z,80.99
2019-05-20T08:58:11.094Z,80.99
2019-05-20T08:59:11.079Z,81.23
2019-05-20T09:00:11.042Z,80.19
2019-05-20T09:01:12.227Z,80.55
2019-05-20T09:02:11.017Z,80.15
2019-05-20T09:03:11.028Z,79.41
2019-05-20T09:04:10.999Z,78.66
2019-05-20T09:05:10.982Z,77.35
2019-05-20T09:06:10.993Z,77.45
2019-05-20T09:07:10.958Z,76.54
2019-05-20T09:08:10.950Z,76.54
2019-05-20T09:09:12.377Z,76.40
2019-05-20T09:10:11.075Z,76.31
2019-05-20T09:11:10.965Z,76.00
2019-05-20T09:12:10.911Z,76.10
2019-05-20T09:13:10.890Z,76.20
2019-05-20T09:14:10.878Z,76.00
2019-05-20T09:15:10.884Z,75.90
2019-05-20T09:16:10.856Z,76.44
2019-05-20T09:17:10.905Z,76.84
2019-05-20T09:18:10.832Z,76.95
2019-05-20T09:19:10.843Z,77.79
2019-05-20T09:20:10.808Z,77.39
2019-05-20T09:21:11.018Z,78.50
2019-05-20T09:22:10.792Z,78.84
2019-05-20T09:23:10.779Z,79.14
2019-05-20T09:24:10.785Z,79.38
2019-05-20T09:25:10.910Z,79.85
2019-05-20T09:26:10.735Z,80.29
2019-05-20T09:27:10.727Z,80.69
2019-05-20T09:28:10.717Z,80.29
2019-05-20T09:29:11.568Z,80.45
2019-05-20T09:30:10.713Z,80.25
2019-05-20T09:31:10.682Z,80.65
2019-05-20T09:32:10.671Z,79.44
2019-05-20T09:33:10.657Z,79.58
2019-05-20T09:34:10.652Z,79.68
2019-05-20T09:35:10.656Z,80.59
2019-05-20T09:36:10.701Z,80.59
2019-05-20T09:37:10.629Z,80.99
2019-05-20T09:38:20.287Z,80.90
2019-05-20T09:39:11.608Z,80.15
2019-05-20T09:40:10.580Z,79.64
2019-05-20T09:41:10.594Z,79.94
2019-05-20T09:42:10.555Z,79.85
2019-05-20T09:43:10.541Z,79.64
2019-05-20T09:44:10.548Z,79.64
2019-05-20T09:45:10.543Z,79.24
2019-05-20T09:46:10.507Z,78.94
2019-05-20T09:47:10.499Z,79.00
2019-05-20T09:48:10.499Z,79.94
2019-05-20T09:49:10.473Z,79.54
2019-05-20T09:50:10.481Z,79.28
2019-05-20T09:51:10.451Z,79.04
2019-05-20T09:52:10.436Z,80.49
2019-05-20T09:53:10.427Z,80.25
2019-05-20T09:54:10.417Z,80.90
2019-05-20T09:55:10.435Z,80.49
2019-05-20T09:56:10.395Z,80.39
2019-05-20T09:57:10.381Z,81.23
2019-05-20T09:58:10.368Z,80.93
2019-05-20T09:59:10.358Z,81.37
2019-05-20T10:00:10.348Z,81.57
2019-05-20T10:01:10.359Z,81.48
2019-05-20T10:02:10.324Z,81.88
2019-05-20T10:03:10.317Z,82.18
2019-05-20T10:04:10.300Z,81.57
2019-05-20T10:05:10.323Z,81.88
2019-05-20T10:06:10.277Z,82.08
2019-05-20T10:07:10.288Z,81.98
2019-05-20T10:08:10.258Z,81.98
2019-05-20T10:09:10.245Z,82.39
2019-05-20T10:10:10.233Z,81.57
2019-05-20T10:11:10.241Z,81.54
2019-05-20T10:12:10.213Z,82.24
2019-05-20T10:13:10.213Z,81.23
2019-05-20T10:14:10.188Z,81.54
2019-05-20T10:15:10.177Z,81.64
2019-05-20T10:16:10.187Z,80.99
2019-05-20T10:17:10.152Z,80.99
2019-05-20T10:18:10.142Z,80.83
2019-05-20T10:19:10.135Z,81.03
2019-05-20T10:20:10.120Z,80.83
2019-05-20T10:21:10.132Z,81.23
2019-05-20T10:22:10.104Z,81.44
2019-05-20T10:23:10.114Z,81.03
2019-05-20T10:24:10.075Z,80.73
2019-05-20T10:25:10.076Z,80.93
2019-05-20T10:26:10.052Z,81.23
2019-05-20T10:27:10.057Z,80.73
2019-05-20T10:28:10.029Z,81.13
2019-05-20T10:29:10.015Z,81.03
2019-05-20T10:30:10.006Z,80.43
2019-05-20T10:31:09.992Z,81.10
2019-05-20T10:32:10.000Z,81.03
2019-05-20T10:33:10.721Z,80.73
2019-05-20T10:34:09.960Z,80.73
2019-05-20T10:35:09.945Z,81.13
2019-05-20T10:36:09.937Z,81.03
2019-05-20T10:37:09.958Z,80.90
2019-05-20T10:38:09.911Z,80.99
2019-05-20T10:39:09.902Z,81.20
2019-05-20T10:40:09.888Z,80.29
2019-05-20T10:41:09.881Z,80.49
2019-05-20T10:42:09.865Z,79.74
2019-05-20T10:43:09.898Z,80.15
2019-05-20T10:44:09.847Z,79.68
2019-05-20T10:45:09.839Z,79.24
2019-05-20T10:46:09.820Z,78.94
2019-05-20T10:47:09.815Z,78.84
2019-05-20T10:48:09.819Z,78.23
2019-05-20T10:49:09.787Z,78.84
2019-05-20T10:50:09.783Z,78.59
2019-05-20T10:51:10.454Z,77.99
2019-05-20T10:52:09.754Z,77.89
2019-05-20T10:53:09.762Z,77.75
2019-05-20T10:54:09.731Z,78.86
2019-05-20T10:55:09.720Z,78.46
2019-05-20T10:56:10.194Z,77.31
2019-05-20T10:57:09.705Z,77.21
2019-05-20T10:58:09.707Z,77.58
2019-05-20T10:59:11.991Z,76.77
2019-05-20T11:00:09.671Z,75.96
2019-05-20T11:01:09.666Z,75.30
2019-05-20T11:02:09.641Z,75.56
2019-05-20T11:03:09.646Z,75.76
2019-05-20T11:04:09.623Z,76.37
2019-05-20T11:05:09.604Z,75.73
2019-05-20T11:06:09.595Z,75.43
2019-05-20T11:07:09.584Z,75.53
2019-05-20T11:08:09.595Z,75.29
2019-05-20T11:09:14.046Z,75.09
2019-05-20T11:10:10.545Z,75.19
2019-05-20T11:11:13.901Z,74.69
2019-05-20T11:12:09.523Z,74.38
2019-05-20T11:13:09.512Z,74.73
2019-05-20T11:14:09.524Z,74.99
2019-05-20T11:15:09.491Z,74.58
2019-05-20T11:16:09.474Z,75.49
2019-05-20T11:17:09.468Z,74.79
2019-05-20T11:18:09.509Z,74.62
2019-05-20T11:19:09.458Z,74.93
2019-05-20T11:20:09.428Z,75.43
2019-05-20T11:21:09.416Z,74.52
2019-05-20T11:22:09.405Z,74.82
2019-05-20T11:23:09.394Z,75.13
2019-05-20T11:24:09.423Z,75.13
2019-05-20T11:25:09.371Z,74.42
2019-05-20T11:26:09.362Z,75.39
2019-05-20T11:27:09.349Z,73.52
2019-05-20T11:28:11.926Z,74.52
2019-05-20T11:29:09.343Z,74.18
2019-05-20T11:30:09.330Z,73.98
2019-05-20T11:31:09.301Z,73.85
2019-05-20T11:32:09.300Z,73.78
2019-05-20T11:33:09.289Z,73.48
2019-05-20T11:34:09.289Z,74.02
2019-05-20T11:35:09.254Z,73.92
2019-05-20T11:36:09.241Z,74.22
2019-05-20T11:37:09.232Z,74.89
2019-05-20T11:38:09.247Z,74.38
2019-05-20T11:39:09.205Z,74.29
2019-05-20T11:40:09.723Z,72.64
2019-05-20T11:41:09.181Z,72.47
2019-05-20T11:42:09.172Z,73.72
2019-05-20T11:43:09.157Z,74.32
2019-05-20T11:44:11.954Z,74.52
2019-05-20T11:45:09.154Z,73.92
2019-05-20T11:46:09.137Z,74.73
2019-05-20T11:47:09.114Z,73.38
2019-05-20T11:48:09.105Z,73.98
2019-05-20T11:49:09.095Z,74.49
2019-05-20T11:50:09.117Z,73.98
2019-05-20T11:51:09.066Z,74.58
2019-05-20T11:52:09.054Z,74.45
2019-05-20T11:53:09.043Z,72.88
2019-05-20T11:54:09.032Z,72.47
2019-05-20T11:55:09.041Z,73.48
2019-05-20T11:56:11.927Z,73.38
2019-05-20T11:57:08.997Z,73.28
2019-05-20T11:58:15.875Z,73.78
2019-05-20T11:59:09.973Z,73.88
2019-05-20T12:00:08.985Z,73.48
2019-05-20T12:01:08.952Z,73.21
2019-05-20T12:02:08.938Z,74.02
2019-05-20T12:03:08.926Z,74.42
2019-05-20T12:04:08.916Z,74.02
2019-05-20T12:05:08.905Z,73.82
2019-05-20T12:06:08.917Z,74.02
2019-05-20T12:07:08.878Z,74.42
2019-05-20T12:08:08.865Z,74.82
2019-05-20T12:09:08.858Z,74.86
2019-05-20T12:10:08.847Z,74.52
2019-05-20T12:11:08.856Z,74.66
2019-05-20T12:12:08.824Z,75.46
2019-05-20T12:13:08.811Z,75.06
2019-05-20T12:14:08.802Z,75.23
2019-05-20T12:15:08.801Z,75.73
2019-05-20T12:16:08.775Z,75.33
2019-05-20T12:17:08.778Z,75.02
2019-05-20T12:18:08.758Z,75.63
2019-05-20T12:19:08.736Z,75.36
2019-05-20T12:20:10.866Z,75.36
2019-05-20T12:21:08.716Z,75.26
2019-05-20T12:22:08.720Z,75.06
2019-05-20T12:23:08.692Z,76.31
2019-05-20T12:24:08.681Z,76.20
2019-05-20T12:25:08.681Z,76.51
2019-05-20T12:26:08.665Z,76.51
2019-05-20T12:27:08.666Z,76.10
2019-05-20T12:28:08.634Z,75.70
2019-05-20T12:29:08.624Z,76.20
2019-05-20T12:30:08.636Z,76.00
2019-05-20T12:31:08.599Z,76.00
2019-05-20T12:32:08.628Z,76.31
2019-05-20T12:33:18.394Z,76.47
2019-05-20T12:34:09.564Z,76.07
2019-05-20T12:35:08.555Z,76.20
2019-05-20T12:36:08.545Z,75.96
2019-05-20T12:37:08.544Z,75.87
2019-05-20T12:38:08.541Z,75.26
2019-05-20T12:39:08.518Z,75.02
2019-05-20T12:40:08.932Z,75.23
2019-05-20T12:41:08.486Z,75.23
2019-05-20T12:42:08.498Z,75.02
2019-05-20T12:43:08.481Z,74.42
2019-05-20T12:44:12.586Z,75.33
2019-05-20T12:45:08.438Z,75.43
2019-05-20T12:46:08.432Z,75.33
2019-05-20T12:47:08.417Z,75.33
2019-05-20T12:48:08.428Z,74.62
2019-05-20T12:49:08.481Z,75.33
2019-05-20T12:50:08.382Z,75.43
2019-05-20T12:51:08.371Z,75.13
2019-05-20T12:52:08.401Z,74.52